Time;durP1;ratioP1;P1;durP2;ratioP2;P2;SDS_P1;SDS_P2;PMS_P1;PMS_P2;Temp;Humidity;BMP_temperature;BMP_pressure;BME280_temperature;BME280_humidity;BME280_pressure;Samples;Min_cycle;Max_cycle;Signal;HPM_P1;HPM_P2
2023/07/01 00:02:08;;;;;;;2.85;1.27;;;;;;;20.33;74.48;98794.81;5054443;28;20056;-66
2023/07/01 00:04:37;;;;;;;;;;;;;;;20.37;74.27;98791.16;5054748;28;20037;-64
2023/07/01 00:07:06;;;;;;;0.80;0.80;;;;;;;20.42;74.08;98789.16;5054437;28;19921;-64
2023/07/01 00:09:35;;;;;;;1.25;0.70;;;;;;;20.44;74.22;98792.50;5054918;28;20434;-64
2023/07/01 00:12:05;;;;;;;1.75;0.95;;;;;;;20.35;74.06;98793.81;5054291;28;20056;-63
2023/07/01 00:14:33;;;;;;;0.60;0.60;;;;;;;20.30;74.06;98795.00;5054149;28;20041;-64
2023/07/01 00:17:04;;;;;;;1.23;1.13;;;;;;;20.28;74.25;98802.00;5054254;28;20041;-64
2023/07/01 00:19:33;;;;;;;0.93;0.90;;;;;;;20.24;74.28;98803.09;5054179;28;20049;-64
2023/07/01 00:22:02;;;;;;;1.80;1.43;;;;;;;20.14;74.50;98799.28;5054144;28;20041;-63
2023/07/01 00:24:31;;;;;;;1.10;0.90;;;;;;;20.08;74.56;98796.09;5053731;28;20495;-64
2023/07/01 00:27:00;;;;;;;0.70;0.70;;;;;;;20.03;74.85;98798.09;5053767;28;20049;-66
2023/07/01 00:29:29;;;;;;;1.73;0.93;;;;;;;19.98;75.07;98802.72;5053944;28;20037;-66
2023/07/01 00:31:59;;;;;;;0.80;0.80;;;;;;;19.97;75.16;98803.63;5053993;28;20050;-65
2023/07/01 00:34:29;;;;;;;1.10;1.00;;;;;;;19.93;75.26;98796.09;5052695;28;20071;-64
2023/07/01 00:36:58;;;;;;;1.23;1.02;;;;;;;19.93;75.26;98796.94;5053950;28;20076;-65
2023/07/01 00:39:27;;;;;;;0.60;0.60;;;;;;;19.97;75.36;98788.06;5052631;28;20037;-66
2023/07/01 00:41:58;;;;;;;0.73;0.73;;;;;;;19.96;75.46;98786.38;5054108;28;20411;-66
2023/07/01 00:44:26;;;;;;;0.73;0.70;;;;;;;19.94;75.45;98788.22;5052875;28;20322;-64
2023/07/01 00:46:56;;;;;;;1.27;0.77;;;;;;;19.94;75.58;98783.03;5053978;28;20476;-64
2023/07/01 00:49:25;;;;;;;0.63;0.63;;;;;;;19.88;75.73;98780.78;5053746;28;20037;-63
2023/07/01 00:51:56;;;;;;;0.95;0.93;;;;;;;19.81;75.99;98784.63;5053749;28;20040;-63
2023/07/01 00:54:26;;;;;;;1.05;0.80;;;;;;;19.79;76.25;98790.81;5053932;28;20040;-63
2023/07/01 00:56:56;;;;;;;1.30;0.93;;;;;;;19.82;75.97;98778.50;5053862;28;20053;-64
2023/07/01 00:59:26;;;;;;;0.77;0.73;;;;;;;19.76;76.33;98783.19;5052718;28;20041;-64
2023/07/01 01:01:59;;;;;;;1.35;0.68;;;;;;;19.78;76.41;98786.53;5052672;28;20474;-63
2023/07/01 01:04:44;;;;;;;0.85;0.82;;;;;;;19.69;76.39;98782.66;5053736;28;20495;-63
2023/07/01 01:07:22;;;;;;;0.50;0.50;;;;;;;19.70;76.83;98778.34;5053449;28;20052;-65
2023/07/01 01:09:57;;;;;;;1.17;1.00;;;;;;;19.76;76.81;98776.25;5052334;28;20103;-66
2023/07/01 01:12:29;;;;;;;1.05;0.60;;;;;;;19.73;76.96;98773.81;5053395;28;20056;-66
2023/07/01 01:15:00;;;;;;;0.47;0.47;;;;;;;19.71;76.83;98780.84;5053695;28;20406;-65
2023/07/01 01:17:32;;;;;;;1.52;1.13;;;;;;;19.70;77.08;98781.75;5053507;28;20056;-65
2023/07/01 01:20:12;;;;;;;1.23;1.13;;;;;;;19.57;77.18;98778.13;5053395;28;20045;-65
2023/07/01 01:22:46;;;;;;;1.60;1.23;;;;;;;19.53;77.58;98775.78;5054225;28;20072;-66
2023/07/01 01:25:29;;;;;;;0.77;0.77;;;;;;;19.56;77.86;98766.09;5053330;28;20128;-65
2023/07/01 01:28:00;;;;;;;0.60;0.60;;;;;;;19.46;77.82;98764.88;5051853;28;20063;-64
2023/07/01 01:30:32;;;;;;;0.60;0.60;;;;;;;19.51;78.01;98768.06;5053601;28;20045;-66
2023/07/01 01:33:02;;;;;;;0.60;0.60;;;;;;;19.53;78.44;98763.66;5052361;28;20041;-65
2023/07/01 01:35:30;;;;;;;0.57;0.57;;;;;;;19.55;78.02;98764.44;5052022;28;20458;-64
2023/07/01 01:38:06;;;;;;;1.00;0.90;;;;;;;19.53;77.84;98752.47;5053184;28;20561;-63
2023/07/01 01:40:41;;;;;;;0.95;0.70;;;;;;;19.55;78.00;98768.78;5053562;28;20553;-63
2023/07/01 01:43:17;;;;;;;1.63;1.52;;;;;;;19.52;78.20;98756.81;5053355;28;20111;-63
2023/07/01 01:45:48;;;;;;;0.55;0.55;;;;;;;19.55;77.89;98758.41;5052035;28;20076;-63
2023/07/01 01:48:18;;;;;;;0.77;0.68;;;;;;;19.54;78.10;98759.31;5053159;28;20426;-64
2023/07/01 01:50:50;;;;;;;1.02;0.88;;;;;;;19.56;78.15;98755.72;5052267;28;20048;-63
2023/07/01 01:53:20;;;;;;;0.50;0.50;;;;;;;19.58;78.09;98756.47;5053127;28;20049;-63
2023/07/01 01:55:50;;;;;;;1.00;0.95;;;;;;;19.65;77.89;98741.50;5053252;28;20041;-64
2023/07/01 01:58:21;;;;;;;1.27;0.68;;;;;;;19.71;77.59;98749.75;5052929;28;20047;-64
2023/07/01 02:00:50;;;;;;;1.80;1.40;;;;;;;19.74;77.63;98744.44;5051838;28;20040;-64
2023/07/01 02:03:19;;;;;;;0.60;0.60;;;;;;;19.72;77.28;98755.78;5052975;28;20055;-63
2023/07/01 02:05:48;;;;;;;0.80;0.80;;;;;;;19.73;77.12;98747.94;5052005;28;20048;-64
2023/07/01 02:08:17;;;;;;;1.15;0.80;;;;;;;19.70;77.03;98755.84;5051947;28;20037;-63
2023/07/01 02:10:46;;;;;;;1.87;1.03;;;;;;;19.65;76.75;98752.66;5053876;28;20041;-64
2023/07/01 02:13:20;;;;;;;1.85;1.20;;;;;;;19.66;76.78;98754.34;5055398;28;20282;-64
2023/07/01 02:15:50;;;;;;;0.80;0.80;;;;;;;19.69;76.59;98746.44;5056595;28;20435;-64
2023/07/01 02:18:20;;;;;;;1.23;1.13;;;;;;;19.64;76.79;98758.78;5056522;28;20095;-64
2023/07/01 02:20:49;;;;;;;1.13;0.77;;;;;;;19.61;76.78;98748.56;5055322;28;20041;-64
2023/07/01 02:23:18;;;;;;;0.73;0.73;;;;;;;19.63;76.85;98746.72;5055457;28;20439;-64
2023/07/01 02:25:47;;;;;;;1.02;0.93;;;;;;;19.63;76.69;98741.56;5056283;28;20041;-63
2023/07/01 02:28:16;;;;;;;0.65;0.65;;;;;;;19.56;76.91;98749.72;5056224;28;20086;-64
2023/07/01 02:30:46;;;;;;;2.05;1.38;;;;;;;19.46;77.07;98748.53;5056583;28;20029;-64
2023/07/01 02:33:16;;;;;;;0.57;0.57;;;;;;;19.43;77.17;98743.50;5056223;28;20053;-64
2023/07/01 02:35:45;;;;;;;0.82;0.60;;;;;;;19.32;77.45;98742.28;5054924;28;20041;-64
2023/07/01 02:38:14;;;;;;;1.40;1.30;;;;;;;19.31;77.50;98734.59;5056102;28;20045;-64
2023/07/01 02:40:43;;;;;;;1.20;0.70;;;;;;;19.26;77.73;98736.59;5056053;28;20055;-64
2023/07/01 02:43:13;;;;;;;;;;;;;;;19.19;77.71;98735.22;5056399;28;20041;-64
2023/07/01 02:45:41;;;;;;;0.55;0.55;;;;;;;19.16;78.01;98740.53;5054723;28;20359;-64
2023/07/01 02:48:12;;;;;;;0.90;0.90;;;;;;;19.14;77.96;98743.22;5054739;28;20045;-64
2023/07/01 02:50:41;;;;;;;1.40;1.30;;;;;;;19.06;78.05;98749.66;5054696;28;20098;-65
2023/07/01 02:53:10;;;;;;;0.80;0.70;;;;;;;19.04;78.20;98751.50;5055778;28;20071;-63
2023/07/01 02:55:39;;;;;;;1.15;1.08;;;;;;;19.03;78.05;98747.22;5056157;28;20080;-63
2023/07/01 02:58:08;;;;;;;0.82;0.80;;;;;;;18.97;77.98;98750.13;5056587;28;20038;-63
2023/07/01 03:00:37;;;;;;;1.20;1.08;;;;;;;18.90;78.22;98746.19;5054346;28;20037;-64
2023/07/01 03:03:07;;;;;;;0.60;0.60;;;;;;;18.82;78.09;98745.72;5054759;28;20095;-65
2023/07/01 03:05:39;;;;;;;0.52;0.52;;;;;;;18.71;78.17;98739.31;5055604;28;20045;-66
2023/07/01 03:08:08;;;;;;;0.75;0.75;;;;;;;18.61;78.46;98748.44;5055554;28;20045;-65
2023/07/01 03:10:37;;;;;;;0.40;0.40;;;;;;;18.57;78.56;98741.72;5055381;28;20094;-64
2023/07/01 03:13:06;;;;;;;0.70;0.70;;;;;;;18.54;78.75;98744.47;5056010;28;20075;-65
2023/07/01 03:15:35;;;;;;;1.00;0.90;;;;;;;18.57;79.03;98753.84;5054186;28;20048;-66
2023/07/01 03:18:04;;;;;;;0.70;0.70;;;;;;;18.64;79.02;98757.81;5054127;28;20064;-66
2023/07/01 03:20:33;;;;;;;0.55;0.55;;;;;;;18.70;79.05;98755.75;5055525;28;20048;-64
2023/07/01 03:23:03;;;;;;;0.80;0.80;;;;;;;18.75;79.13;98758.09;5053393;28;20071;-65
2023/07/01 03:25:33;;;;;;;1.33;1.08;;;;;;;18.66;79.32;98748.22;5055158;28;20294;-66
2023/07/01 03:28:02;;;;;;;1.50;1.40;;;;;;;18.64;79.48;98757.81;5054062;28;20049;-66
2023/07/01 03:30:32;;;;;;;2.45;1.40;;;;;;;18.55;79.52;98748.72;5053938;28;20045;-66
2023/07/01 03:33:01;;;;;;;0.63;0.63;;;;;;;18.58;79.77;98758.91;5053877;28;20076;-64
2023/07/01 03:35:30;;;;;;;0.50;0.50;;;;;;;18.64;79.77;98761.19;5055297;28;20513;-64
2023/07/01 03:37:58;;;;;;;1.07;0.87;;;;;;;18.70;79.74;98758.34;5055256;28;20067;-63
2023/07/01 03:40:29;;;;;;;1.07;0.90;;;;;;;18.78;80.09;98751.94;5055008;28;20049;-63
2023/07/01 03:42:58;;;;;;;0.57;0.57;;;;;;;18.80;80.03;98757.88;5055129;28;20056;-64
2023/07/01 03:45:27;;;;;;;1.55;0.85;;;;;;;18.91;80.06;98758.22;5054783;28;20041;-64
2023/07/01 03:47:55;;;;;;;0.87;0.87;;;;;;;19.01;80.25;98752.50;5054744;28;20044;-64
2023/07/01 03:50:25;;;;;;;1.63;1.23;;;;;;;19.13;80.40;98761.38;5054775;28;20274;-64
2023/07/01 03:52:54;;;;;;;0.77;0.60;;;;;;;19.19;80.01;98761.09;5054928;28;20053;-64
2023/07/01 03:55:23;;;;;;;1.60;1.00;;;;;;;19.24;79.52;98759.13;5054679;28;20376;-64
2023/07/01 03:57:53;;;;;;;1.10;1.00;;;;;;;19.32;78.76;98757.81;5054908;28;20072;-64
2023/07/01 04:00:23;;;;;;;1.42;1.00;;;;;;;19.38;78.42;98762.72;5054881;28;20099;-64
2023/07/01 04:02:53;;;;;;;0.90;0.88;;;;;;;19.47;78.18;98771.75;5054511;28;20048;-65
2023/07/01 04:05:23;;;;;;;1.20;0.88;;;;;;;19.53;77.77;98776.59;5055052;28;20064;-65
2023/07/01 04:07:51;;;;;;;0.70;0.70;;;;;;;19.52;77.84;98784.44;5054377;28;20041;-66
2023/07/01 04:10:21;;;;;;;2.00;1.05;;;;;;;19.50;77.66;98787.13;5054334;28;20072;-66
2023/07/01 04:12:49;;;;;;;1.27;0.80;;;;;;;19.45;77.60;98775.31;5054248;28;20139;-65
2023/07/01 04:15:20;;;;;;;1.55;0.82;;;;;;;19.43;77.70;98790.94;5054582;28;20041;-64
2023/07/01 04:17:50;;;;;;;0.93;0.77;;;;;;;19.42;78.13;98784.09;5054548;28;20071;-63
2023/07/01 04:20:20;;;;;;;2.50;0.98;;;;;;;19.43;78.43;98790.94;5054186;28;20072;-64
2023/07/01 04:22:49;;;;;;;1.77;1.02;;;;;;;19.42;78.79;98794.44;5054193;28;20057;-64
2023/07/01 04:25:18;;;;;;;0.87;0.80;;;;;;;19.45;79.44;98789.09;5054316;28;20051;-63
2023/07/01 04:27:47;;;;;;;0.70;0.70;;;;;;;19.36;79.74;98792.16;5054176;28;20073;-63
2023/07/01 04:30:16;;;;;;;0.93;0.87;;;;;;;19.35;80.66;98790.44;5053983;28;20116;-62
2023/07/01 04:32:46;;;;;;;1.15;0.82;;;;;;;19.36;81.00;98795.56;5054246;28;20132;-62
2023/07/01 04:35:15;;;;;;;1.45;1.33;;;;;;;19.39;81.64;98805.78;5053713;28;20116;-62
2023/07/01 04:37:44;;;;;;;2.75;1.63;;;;;;;19.31;82.29;98807.91;5053858;28;20051;-62
2023/07/01 04:40:13;;;;;;;0.60;0.60;;;;;;;19.29;82.77;98808.88;5054175;28;20036;-62
2023/07/01 04:42:46;;;;;;;0.93;0.60;;;;;;;19.20;83.69;98809.31;5053778;28;20495;-62
2023/07/01 04:45:15;;;;;;;1.77;0.98;;;;;;;19.14;84.24;98814.81;5053853;28;20064;-63
2023/07/01 04:47:43;;;;;;;7.97;1.50;;;;;;;19.17;84.78;98809.50;5053792;28;20045;-63
2023/07/01 04:50:14;;;;;;;2.05;0.95;;;;;;;19.21;85.24;98804.09;5054083;28;20045;-63
2023/07/01 04:52:43;;;;;;;1.50;1.25;;;;;;;19.17;85.34;98804.31;5053717;28;20098;-62
2023/07/01 04:55:12;;;;;;;1.15;1.05;;;;;;;19.15;85.71;98806.97;5053593;28;20053;-63
2023/07/01 04:57:41;;;;;;;0.45;0.45;;;;;;;19.21;85.98;98805.84;5053591;28;20044;-63
2023/07/01 05:00:11;;;;;;;1.70;1.30;;;;;;;19.25;86.08;98815.94;5053918;28;20114;-63
2023/07/01 05:02:40;;;;;;;0.82;0.82;;;;;;;19.28;86.28;98820.13;5053505;28;20269;-63
2023/07/01 05:05:09;;;;;;;1.02;0.95;;;;;;;19.31;86.17;98828.59;5053330;28;20061;-62
2023/07/01 05:07:40;;;;;;;1.48;0.75;;;;;;;19.20;86.02;98828.28;5053690;28;20053;-63
2023/07/01 05:10:09;;;;;;;0.52;0.50;;;;;;;19.16;86.30;98834.53;5053525;28;20503;-62
2023/07/01 05:12:38;;;;;;;;;;;;;;;19.19;86.03;98823.19;5054019;28;20049;-63
2023/07/01 05:15:08;;;;;;;2.47;1.58;;;;;;;19.18;85.90;98821.50;5053406;28;19925;-63
2023/07/01 05:17:37;;;;;;;1.17;1.02;;;;;;;19.16;86.14;98824.19;5053314;28;20045;-63
2023/07/01 05:20:06;;;;;;;1.05;0.93;;;;;;;19.21;86.35;98826.53;5053626;28;20119;-63
2023/07/01 05:22:35;;;;;;;;;;;;;;;19.17;86.14;98825.00;5053781;28;20484;-63
2023/07/01 05:25:06;;;;;;;1.70;0.88;;;;;;;19.17;86.16;98825.00;5053515;28;20012;-63
2023/07/01 05:27:35;;;;;;;1.40;1.30;;;;;;;19.20;86.42;98830.00;5053109;28;20139;-63
2023/07/01 05:30:05;;;;;;;0.90;0.70;;;;;;;19.19;86.43;98828.38;5053268;28;20041;-63
2023/07/01 05:32:33;;;;;;;1.40;1.30;;;;;;;19.22;86.66;98838.53;5053542;28;20037;-63
2023/07/01 05:35:03;;;;;;;1.33;1.17;;;;;;;19.22;86.69;98835.94;5053518;28;20069;-63
2023/07/01 05:37:33;;;;;;;1.27;1.05;;;;;;;19.25;86.93;98840.97;5053434;28;20343;-63
2023/07/01 05:40:02;;;;;;;1.53;1.43;;;;;;;19.34;87.18;98837.94;5052858;28;20044;-63
2023/07/01 05:42:32;;;;;;;1.83;1.33;;;;;;;19.36;87.27;98836.97;5045549;28;20120;-63
2023/07/01 05:45:01;;;;;;;1.23;1.02;;;;;;;19.38;87.25;98830.00;5037177;28;20046;-63
2023/07/01 05:47:30;;;;;;;0.77;0.73;;;;;;;19.34;87.25;98832.75;5036998;28;20049;-63
2023/07/01 05:49:59;;;;;;;0.93;0.82;;;;;;;19.19;87.20;98824.03;5037136;28;20041;-63
2023/07/01 05:52:28;;;;;;;1.10;1.00;;;;;;;19.12;87.51;98824.41;5035069;28;20045;-64
2023/07/01 05:54:57;;;;;;;0.73;0.73;;;;;;;19.11;87.32;98822.72;5049315;28;20381;-63
2023/07/01 05:57:25;;;;;;;1.10;1.00;;;;;;;19.14;87.76;98827.75;5056939;28;20407;-63
2023/07/01 05:59:56;;;;;;;1.20;1.08;;;;;;;19.25;87.93;98828.03;5057183;28;20159;-63
2023/07/01 06:02:25;;;;;;;1.40;1.30;;;;;;;19.30;87.89;98820.88;5053456;28;20060;-64
2023/07/01 06:04:53;;;;;;;1.38;1.20;;;;;;;19.26;87.84;98829.72;5036799;28;20041;-63
2023/07/01 06:07:23;;;;;;;0.77;0.77;;;;;;;19.20;87.77;98827.44;5036645;28;20095;-63
2023/07/01 06:09:52;;;;;;;0.70;0.70;;;;;;;19.20;87.62;98824.84;5036694;28;20045;-63
2023/07/01 06:12:21;;;;;;;0.80;0.80;;;;;;;19.18;87.62;98829.25;5036668;28;20061;-63
2023/07/01 06:14:50;;;;;;;2.63;2.43;;;;;;;19.22;87.62;98833.38;5046140;28;20047;-63
2023/07/01 06:17:21;;;;;;;1.17;1.08;;;;;;;19.36;87.56;98842.16;5040063;28;20038;-64
2023/07/01 06:19:50;;;;;;;3.60;1.20;;;;;;;19.43;87.36;98847.88;5038281;28;20158;-63
2023/07/01 06:22:19;;;;;;;1.27;1.10;;;;;;;19.38;87.44;98844.69;5056194;28;20415;-63
2023/07/01 06:24:48;;;;;;;1.40;1.03;;;;;;;19.39;87.39;98834.25;5056299;28;20120;-63
2023/07/01 06:27:17;;;;;;;1.27;1.17;;;;;;;19.37;87.02;98837.81;5056158;28;20325;-63
2023/07/01 06:29:46;;;;;;;0.88;0.77;;;;;;;19.37;87.25;98830.06;5052085;28;20049;-63
2023/07/01 06:32:15;;;;;;;1.63;1.37;;;;;;;19.41;87.03;98829.00;5040105;28;20037;-63
2023/07/01 06:34:45;;;;;;;1.50;1.02;;;;;;;19.46;87.35;98818.44;5056215;28;20052;-63
2023/07/01 06:37:14;;;;;;;0.88;0.75;;;;;;;19.48;87.55;98820.03;5056151;28;20045;-63
2023/07/01 06:39:43;;;;;;;0.93;0.80;;;;;;;19.42;87.44;98824.66;5044294;28;20399;-64
2023/07/01 06:42:13;;;;;;;1.77;1.10;;;;;;;19.48;87.78;98830.38;5035884;28;20038;-63
2023/07/01 06:44:41;;;;;;;;;;;;;;;19.53;87.46;98838.72;5036853;28;20072;-63
2023/07/01 06:47:10;;;;;;;0.75;0.73;;;;;;;19.59;87.55;98840.16;5036180;28;20019;-63
2023/07/01 06:49:39;;;;;;;1.47;1.20;;;;;;;19.53;87.54;98827.56;5035993;28;20038;-62
2023/07/01 06:52:09;;;;;;;2.23;1.50;;;;;;;19.47;87.50;98833.88;5035872;28;20545;-63
2023/07/01 06:54:39;;;;;;;1.05;1.02;;;;;;;19.37;87.86;98833.50;5036740;28;20073;-63
2023/07/01 06:57:08;;;;;;;;;;;;;;;19.37;87.94;98832.66;5036740;28;20064;-63
2023/07/01 06:59:36;;;;;;;2.00;1.65;;;;;;;19.41;88.00;98838.53;5036028;28;19960;-63
2023/07/01 07:02:06;;;;;;;0.63;0.63;;;;;;;19.41;87.79;98841.09;5036043;28;20034;-64
2023/07/01 07:04:35;;;;;;;2.22;1.63;;;;;;;19.43;88.00;98841.88;5035974;28;20100;-63
2023/07/01 07:07:05;;;;;;;1.88;1.33;;;;;;;19.42;87.88;98846.19;5035663;28;20046;-63
2023/07/01 07:09:35;;;;;;;2.33;1.42;;;;;;;19.34;87.83;98845.69;5035653;28;20039;-63
2023/07/01 07:12:05;;;;;;;2.33;1.15;;;;;;;19.33;88.09;98847.47;5035896;28;20458;-63
2023/07/01 07:14:33;;;;;;;1.00;0.90;;;;;;;19.35;88.21;98844.78;5035752;28;20042;-63
2023/07/01 07:17:02;;;;;;;0.93;0.88;;;;;;;19.38;88.50;98845.53;5034315;28;20045;-63
2023/07/01 07:19:31;;;;;;;1.25;1.15;;;;;;;19.43;88.28;98836.69;5035462;28;20057;-63
2023/07/01 07:22:00;;;;;;;1.50;1.40;;;;;;;19.39;88.30;98835.97;5051013;28;20036;-63
2023/07/01 07:24:29;;;;;;;1.17;0.93;;;;;;;19.32;88.58;98834.59;5035344;28;20136;-64
2023/07/01 07:27:01;;;;;;;1.20;1.10;;;;;;;19.37;88.95;98832.66;5035013;28;20093;-63
2023/07/01 07:29:30;;;;;;;1.50;1.40;;;;;;;19.42;89.18;98833.25;5035370;28;20042;-63
2023/07/01 07:31:59;;;;;;;2.05;1.23;;;;;;;19.42;89.29;98819.47;5035401;28;20041;-63
2023/07/01 07:34:28;;;;;;;1.10;1.00;;;;;;;19.44;89.34;98823.66;5035206;28;20095;-63
2023/07/01 07:36:58;;;;;;;1.75;1.48;;;;;;;19.54;89.54;98818.84;5035175;28;20279;-63
2023/07/01 07:39:26;;;;;;;0.90;0.90;;;;;;;19.63;89.50;98819.22;5035404;28;20072;-63
2023/07/01 07:41:55;;;;;;;1.30;1.10;;;;;;;19.68;89.37;98812.06;5035053;28;20045;-63
2023/07/01 07:44:26;;;;;;;1.05;0.93;;;;;;;19.70;89.20;98820.56;5034908;28;20044;-63
2023/07/01 07:46:56;;;;;;;0.60;0.60;;;;;;;19.73;89.08;98820.44;5035187;28;20073;-63
2023/07/01 07:49:25;;;;;;;2.20;1.33;;;;;;;19.77;89.00;98827.13;5035138;28;20056;-63
2023/07/01 07:51:53;;;;;;;1.03;0.97;;;;;;;19.82;88.66;98819.94;5034766;28;20045;-63
2023/07/01 07:54:22;;;;;;;3.50;2.15;;;;;;;19.80;88.78;98821.78;5034760;28;20314;-63
2023/07/01 07:56:58;;;;;;;1.42;1.33;;;;;;;19.83;88.70;98815.59;5034642;28;20495;-63
2023/07/01 07:59:29;;;;;;;1.67;1.00;;;;;;;19.79;88.64;98812.38;5034764;28;20068;-63
2023/07/01 08:01:59;;;;;;;1.95;1.30;;;;;;;19.82;88.44;98819.13;5034566;28;20057;-63
2023/07/01 08:04:28;;;;;;;0.75;0.73;;;;;;;19.93;88.29;98822.00;5034591;28;20495;-64
2023/07/01 08:06:57;;;;;;;1.15;1.05;;;;;;;20.01;88.25;98807.72;5034540;28;20071;-63
2023/07/01 08:09:26;;;;;;;0.52;0.52;;;;;;;20.03;88.27;98808.47;5033925;28;20046;-63
2023/07/01 08:11:58;;;;;;;0.87;0.87;;;;;;;20.05;88.30;98803.22;5034449;28;20052;-63
2023/07/01 08:14:29;;;;;;;0.73;0.73;;;;;;;20.00;88.22;98807.78;5034346;28;20540;-63
2023/07/01 08:17:00;;;;;;;0.80;0.70;;;;;;;19.99;88.29;98801.78;5035488;28;20507;-63
2023/07/01 08:19:29;;;;;;;1.30;1.20;;;;;;;20.01;88.33;98801.72;5034313;28;20064;-63
2023/07/01 08:21:58;;;;;;;0.90;0.88;;;;;;;19.96;88.55;98811.47;5034527;28;20041;-62
2023/07/01 08:24:27;;;;;;;2.67;1.42;;;;;;;20.02;88.56;98800.78;5034025;28;20519;-63
2023/07/01 08:26:56;;;;;;;1.37;1.27;;;;;;;20.06;88.65;98797.94;5033990;28;20503;-63
2023/07/01 08:29:25;;;;;;;2.25;1.48;;;;;;;20.18;88.48;98806.00;5034358;28;20381;-63
2023/07/01 08:31:55;;;;;;;1.83;1.30;;;;;;;20.24;88.52;98805.69;5033965;28;20053;-63
2023/07/01 08:34:24;;;;;;;1.27;1.17;;;;;;;20.32;88.28;98798.34;5034423;28;20306;-63
2023/07/01 08:36:53;;;;;;;0.93;0.75;;;;;;;20.25;88.13;98800.41;5033992;28;20487;-63
2023/07/01 08:39:24;;;;;;;2.70;1.10;;;;;;;20.23;88.20;98804.03;5033998;28;20121;-63
2023/07/01 08:41:58;;;;;;;2.85;1.52;;;;;;;20.34;88.21;98810.31;5034162;28;20429;-63
2023/07/01 08:44:27;;;;;;;2.08;1.65;;;;;;;20.40;88.24;98817.72;5033901;28;20050;-63
2023/07/01 08:46:57;;;;;;;1.85;1.55;;;;;;;20.44;88.11;98806.25;5033741;28;20041;-63
2023/07/01 08:49:28;;;;;;;1.65;1.30;;;;;;;20.48;87.99;98814.72;5033818;28;20519;-63
2023/07/01 08:52:05;;;;;;;1.50;1.35;;;;;;;20.53;87.53;98812.72;5033783;28;20496;-63
2023/07/01 08:54:35;;;;;;;1.75;1.15;;;;;;;20.67;87.15;98802.41;5033986;28;20399;-64
2023/07/01 08:57:05;;;;;;;1.33;1.23;;;;;;;20.78;86.21;98807.81;5033754;28;20046;-63
2023/07/01 08:59:34;;;;;;;2.03;1.58;;;;;;;20.77;85.41;98813.94;5034011;28;20049;-63
2023/07/01 09:02:05;;;;;;;1.15;1.05;;;;;;;20.86;85.08;98810.84;5034346;28;20112;-63
2023/07/01 09:04:35;;;;;;;1.08;1.00;;;;;;;20.98;84.57;98807.56;5033695;28;20053;-62
2023/07/01 09:07:05;;;;;;;1.10;0.88;;;;;;;21.07;84.73;98799.25;5033843;28;20474;-63
2023/07/01 09:09:35;;;;;;;2.63;1.30;;;;;;;21.15;83.86;98804.88;5033578;28;20049;-63
2023/07/01 09:12:04;;;;;;;;;;;;;;;21.25;84.02;98813.81;5034127;28;20480;-63
2023/07/01 09:14:59;;;;;;;5.70;1.05;;;;;;;21.18;83.55;98796.91;5033468;28;19921;-62
2023/07/01 09:17:32;;;;;;;0.93;0.85;;;;;;;21.23;83.35;98805.28;5033551;28;20053;-63
2023/07/01 09:20:03;;;;;;;1.40;1.10;;;;;;;21.34;83.26;98813.25;5033640;28;20549;-63
2023/07/01 09:22:33;;;;;;;1.33;1.23;;;;;;;21.36;83.09;98801.00;5037904;28;20049;-63
2023/07/01 09:25:03;;;;;;;2.17;1.52;;;;;;;21.33;82.79;98811.56;5038006;28;20387;-63
2023/07/01 09:27:42;;;;;;;1.30;1.20;;;;;;;21.26;82.07;98805.06;5037195;28;20057;-63
2023/07/01 09:30:25;;;;;;;3.30;1.85;;;;;;;21.28;81.35;98805.81;5037817;28;20037;-63
2023/07/01 09:33:12;;;;;;;2.40;1.00;;;;;;;21.34;80.82;98804.63;5037512;28;20065;-63
2023/07/01 09:35:43;;;;;;;2.10;1.25;;;;;;;21.40;80.33;98811.22;5037062;28;20513;-63
2023/07/01 09:38:14;;;;;;;0.90;0.75;;;;;;;21.52;80.06;98811.34;5037232;28;20045;-63
2023/07/01 09:40:42;;;;;;;;;;;;;;;21.65;79.98;98807.09;5037868;28;20132;-63
2023/07/01 09:43:12;;;;;;;1.27;1.00;;;;;;;21.76;79.40;98793.47;5037331;28;19952;-63
2023/07/01 09:45:54;;;;;;;1.15;0.90;;;;;;;21.84;79.06;98801.63;5037175;28;20107;-63
2023/07/01 09:48:24;;;;;;;1.75;1.25;;;;;;;21.84;78.63;98796.41;5037003;28;20080;-63
2023/07/01 09:51:00;;;;;;;0.90;0.90;;;;;;;21.86;78.07;98799.78;5037555;28;20053;-63
2023/07/01 09:53:33;;;;;;;1.65;1.08;;;;;;;21.94;77.84;98797.56;5037090;28;20403;-64
2023/07/01 09:56:03;;;;;;;0.70;0.70;;;;;;;22.00;77.71;98797.22;5037004;28;20132;-63
2023/07/01 09:58:33;;;;;;;1.50;1.08;;;;;;;22.07;77.57;98798.50;5037185;28;20444;-63
2023/07/01 10:01:02;;;;;;;2.17;1.38;;;;;;;22.03;77.20;98787.44;5037036;28;20057;-63
2023/07/01 10:03:36;;;;;;;0.80;0.80;;;;;;;22.18;77.21;98793.47;5036813;28;20132;-64
2023/07/01 10:06:06;;;;;;;0.68;0.68;;;;;;;22.36;77.45;98794.09;5037046;28;20053;-63
2023/07/01 10:08:35;;;;;;;0.70;0.70;;;;;;;22.41;77.31;98785.06;5036784;28;20046;-63
2023/07/01 10:11:09;;;;;;;1.35;0.85;;;;;;;22.51;77.23;98773.16;5036926;28;20570;-63
2023/07/01 10:13:44;;;;;;;1.27;1.00;;;;;;;22.57;76.86;98787.53;5036691;28;20060;-64
2023/07/01 10:16:15;;;;;;;0.65;0.60;;;;;;;22.62;76.32;98781.16;5036648;28;20050;-64
2023/07/01 10:18:45;;;;;;;1.02;0.93;;;;;;;22.70;75.95;98777.22;5036820;28;20542;-64
2023/07/01 10:21:31;;;;;;;1.63;1.52;;;;;;;22.83;75.22;98778.06;5036483;28;20060;-64
2023/07/01 10:24:02;;;;;;;0.95;0.90;;;;;;;22.91;74.34;98765.41;5035306;28;20108;-64
2023/07/01 10:26:40;;;;;;;1.63;1.45;;;;;;;23.03;74.17;98759.41;5036594;28;20059;-65
2023/07/01 10:29:31;;;;;;;1.25;0.80;;;;;;;23.22;73.75;98758.09;5035747;28;20049;-64
2023/07/01 10:32:32;;;;;;;1.27;1.00;;;;;;;23.39;73.17;98763.94;5035827;28;20050;-64
2023/07/01 10:35:15;;;;;;;0.88;0.80;;;;;;;23.46;72.39;98753.03;5036650;28;20041;-64
2023/07/01 10:37:45;;;;;;;1.25;1.05;;;;;;;23.43;71.96;98753.22;5036544;28;20072;-64
2023/07/01 10:40:35;;;;;;;1.40;1.30;;;;;;;23.45;71.41;98751.34;5036709;28;20377;-64
2023/07/01 10:43:23;;;;;;;2.40;0.95;;;;;;;23.51;70.96;98750.09;5036104;28;20128;-64
2023/07/01 10:46:10;;;;;;;1.58;1.38;;;;;;;23.62;70.80;98740.59;5036081;28;20132;-64
2023/07/01 10:48:41;;;;;;;1.02;0.93;;;;;;;23.63;70.14;98739.69;5036500;28;20046;-64
2023/07/01 10:51:13;;;;;;;1.55;1.35;;;;;;;23.66;69.92;98738.63;5036293;28;20049;-64
2023/07/01 10:53:57;;;;;;;2.25;1.58;;;;;;;23.84;69.98;98738.19;5035842;28;20046;-64
2023/07/01 10:56:28;;;;;;;1.33;1.15;;;;;;;24.00;69.79;98743.97;5035961;28;20549;-64
2023/07/01 10:59:17;;;;;;;1.63;1.00;;;;;;;23.83;69.43;98739.13;5035864;28;20045;-64
2023/07/01 11:01:48;;;;;;;1.52;1.17;;;;;;;23.85;69.93;98739.84;5035989;28;20056;-64
2023/07/01 11:04:20;;;;;;;0.73;0.70;;;;;;;23.92;69.61;98735.84;5035861;28;20458;-64
2023/07/01 11:06:53;;;;;;;1.30;1.08;;;;;;;24.08;69.34;98729.59;5035705;28;20451;-64
2023/07/01 11:09:32;;;;;;;1.20;1.00;;;;;;;24.31;69.36;98731.41;5035673;28;20049;-64
2023/07/01 11:12:03;;;;;;;0.60;0.60;;;;;;;24.43;68.54;98727.91;5035655;28;20168;-64
2023/07/01 11:14:35;;;;;;;0.68;0.68;;;;;;;24.70;67.78;98720.69;5035487;28;20080;-65
2023/07/01 11:17:08;;;;;;;0.52;0.52;;;;;;;24.89;67.29;98723.63;5035559;28;20128;-64
2023/07/01 11:19:39;;;;;;;1.73;0.70;;;;;;;25.06;66.53;98719.75;5035764;28;20053;-65
2023/07/01 11:22:13;;;;;;;0.95;0.75;;;;;;;25.19;65.20;98716.09;5036070;28;20049;-65
2023/07/01 11:24:42;;;;;;;0.50;0.50;;;;;;;25.50;65.71;98719.88;5035368;28;20045;-64
2023/07/01 11:27:11;;;;;;;0.60;0.60;;;;;;;25.77;65.17;98722.94;5035385;28;20075;-64
2023/07/01 11:29:44;;;;;;;0.80;0.80;;;;;;;25.98;64.52;98709.97;5035278;28;20037;-65
2023/07/01 11:32:15;;;;;;;0.75;0.70;;;;;;;26.01;64.06;98714.94;5035482;28;20514;-65
2023/07/01 11:34:47;;;;;;;0.60;0.60;;;;;;;25.93;63.61;98714.75;5035170;28;20045;-64
2023/07/01 11:37:28;;;;;;;0.80;0.80;;;;;;;25.90;63.46;98712.38;5035050;28;20115;-64
2023/07/01 11:39:57;;;;;;;1.15;0.88;;;;;;;25.94;63.37;98709.38;5035077;28;20073;-65
2023/07/01 11:42:27;;;;;;;0.93;0.90;;;;;;;25.98;62.95;98704.75;5035269;28;20522;-65
2023/07/01 11:44:56;;;;;;;0.90;0.80;;;;;;;26.20;63.07;98702.09;5034210;28;20172;-65
2023/07/01 11:47:24;;;;;;;1.60;1.13;;;;;;;26.28;62.91;98707.56;5035213;28;20039;-65
2023/07/01 11:49:54;;;;;;;0.77;0.75;;;;;;;26.46;62.45;98706.09;5034888;28;20041;-65
2023/07/01 11:52:27;;;;;;;0.75;0.52;;;;;;;26.74;62.54;98703.81;5034797;28;20053;-65